createdAt,value
2019-03-26T00:00:35.435Z,1.94
2019-03-26T00:01:08.528Z,1.94
2019-03-26T00:01:39.754Z,1.94
2019-03-26T00:02:10.930Z,1.95
2019-03-26T00:02:42.129Z,1.95
2019-03-26T00:03:14.269Z,1.96
2019-03-26T00:03:45.460Z,1.94
2019-03-26T00:04:16.613Z,1.96
2019-03-26T00:04:47.819Z,1.95
2019-03-26T00:05:18.959Z,1.95
2019-03-26T00:05:50.172Z,1.96
2019-03-26T00:06:21.315Z,1.93
2019-03-26T00:06:52.613Z,1.92
2019-03-26T00:07:24.011Z,1.90
2019-03-26T00:07:55.223Z,1.88
2019-03-26T00:08:26.367Z,1.88
2019-03-26T00:08:57.567Z,1.87
2019-03-26T00:09:28.736Z,1.88
2019-03-26T00:09:59.931Z,1.88
2019-03-26T00:10:31.071Z,1.88
2019-03-26T00:11:02.678Z,1.87
2019-03-26T00:11:33.961Z,1.86
2019-03-26T00:12:05.316Z,1.86
2019-03-26T00:12:36.581Z,1.76
2019-03-26T00:13:07.767Z,1.76
2019-03-26T00:13:38.932Z,1.86
2019-03-26T00:14:10.134Z,1.86
2019-03-26T00:14:41.307Z,1.86
2019-03-26T00:15:12.493Z,1.86
2019-03-26T00:15:43.663Z,1.87
2019-03-26T00:16:14.904Z,1.86
2019-03-26T00:16:46.139Z,1.86
2019-03-26T00:17:17.391Z,1.87
2019-03-26T00:17:48.597Z,1.87
2019-03-26T00:18:19.776Z,1.87
2019-03-26T00:18:50.997Z,1.87
2019-03-26T00:19:23.153Z,1.87
2019-03-26T00:19:54.359Z,1.89
2019-03-26T00:20:25.510Z,1.89
2019-03-26T00:20:56.969Z,1.88
2019-03-26T00:21:28.168Z,1.87
2019-03-26T00:21:59.382Z,1.87
2019-03-26T00:22:30.540Z,1.87
2019-03-26T00:23:01.758Z,1.86
2019-03-26T00:23:32.898Z,1.87
2019-03-26T00:24:04.106Z,1.87
2019-03-26T00:24:35.242Z,1.87
2019-03-26T00:25:06.462Z,1.87
2019-03-26T00:25:38.614Z,1.87
2019-03-26T00:26:09.827Z,1.88
2019-03-26T00:26:40.981Z,1.88
2019-03-26T00:27:12.164Z,1.87
2019-03-26T00:27:43.358Z,1.87
2019-03-26T00:28:14.556Z,1.87
2019-03-26T00:28:45.724Z,1.87
2019-03-26T00:29:16.956Z,1.88
2019-03-26T00:29:48.106Z,1.87
2019-03-26T00:30:19.345Z,1.88
2019-03-26T00:30:50.494Z,1.89
2019-03-26T00:31:21.689Z,1.89
2019-03-26T00:31:52.843Z,1.90
2019-03-26T00:32:24.208Z,1.89
2019-03-26T00:32:55.378Z,1.89
2019-03-26T00:33:36.383Z,1.90
2019-03-26T00:33:59.621Z,1.90
2019-03-26T00:34:30.833Z,1.91
2019-03-26T00:35:01.991Z,1.92
2019-03-26T00:35:33.179Z,1.94
2019-03-26T00:36:04.325Z,1.94
2019-03-26T00:36:35.542Z,1.94
2019-03-26T00:37:06.701Z,1.92
2019-03-26T00:37:38.905Z,1.92
2019-03-26T00:38:10.082Z,1.92
2019-03-26T00:38:41.425Z,1.92
2019-03-26T00:39:12.867Z,1.92
2019-03-26T00:39:44.102Z,1.92
2019-03-26T00:40:15.342Z,1.90
2019-03-26T00:40:46.612Z,1.92
2019-03-26T00:41:17.882Z,1.92
2019-03-26T00:41:49.116Z,1.93
2019-03-26T00:42:20.365Z,1.92
2019-03-26T00:42:51.593Z,1.91
2019-03-26T00:43:22.793Z,1.92
2019-03-26T00:43:53.959Z,1.92
2019-03-26T00:44:25.167Z,1.92
2019-03-26T00:44:56.531Z,1.94
2019-03-26T00:45:27.689Z,1.94
2019-03-26T00:45:58.884Z,1.94
2019-03-26T00:46:30.153Z,1.96
2019-03-26T00:47:01.328Z,1.96
2019-03-26T00:47:32.545Z,1.86
2019-03-26T00:48:03.692Z,1.86
2019-03-26T00:48:34.887Z,1.95
2019-03-26T00:49:06.054Z,1.91
2019-03-26T00:49:37.256Z,1.94
2019-03-26T00:50:08.436Z,1.95
2019-03-26T00:50:39.742Z,1.95
2019-03-26T00:51:10.907Z,1.93
2019-03-26T00:51:42.112Z,1.95
2019-03-26T00:52:13.280Z,1.94
2019-03-26T00:52:44.498Z,1.82
2019-03-26T00:53:15.772Z,1.93
2019-03-26T00:53:46.960Z,1.93
2019-03-26T00:54:18.118Z,1.92
2019-03-26T00:54:49.322Z,1.92
2019-03-26T00:55:22.741Z,1.93
2019-03-26T00:55:53.632Z,1.92
2019-03-26T00:56:24.807Z,1.91
2019-03-26T00:56:56.007Z,1.91
2019-03-26T00:57:27.158Z,1.93
2019-03-26T00:58:01.405Z,1.93
2019-03-26T00:58:31.430Z,1.94
2019-03-26T00:59:02.614Z,1.94
2019-03-26T00:59:33.795Z,1.96
2019-03-26T01:00:06.073Z,1.96
2019-03-26T01:00:41.074Z,1.96
2019-03-26T01:01:12.233Z,1.96
2019-03-26T01:01:43.417Z,1.96
2019-03-26T01:02:14.669Z,1.97
2019-03-26T01:02:45.881Z,1.97
2019-03-26T01:03:17.058Z,1.97
2019-03-26T01:03:48.262Z,1.97
2019-03-26T01:04:32.125Z,1.98
2019-03-26T01:04:53.662Z,1.98
2019-03-26T01:05:24.847Z,1.98
2019-03-26T01:05:56.094Z,1.98
2019-03-26T01:06:27.310Z,1.98
2019-03-26T01:06:58.491Z,1.90
2019-03-26T01:07:29.680Z,1.96
2019-03-26T01:08:01.888Z,1.90
2019-03-26T01:08:33.088Z,1.90
2019-03-26T01:09:04.951Z,1.99
2019-03-26T01:09:36.162Z,1.99
2019-03-26T01:10:13.002Z,1.99
2019-03-26T01:10:44.207Z,2.00
2019-03-26T01:11:15.365Z,1.99
2019-03-26T01:11:46.620Z,2.01
2019-03-26T01:12:17.784Z,2.02
2019-03-26T01:12:48.984Z,2.02
2019-03-26T01:13:20.141Z,1.92
2019-03-26T01:13:51.344Z,2.02
2019-03-26T01:14:22.514Z,1.94
2019-03-26T01:14:53.702Z,2.04
2019-03-26T01:15:24.847Z,2.05
2019-03-26T01:15:56.032Z,2.06
2019-03-26T01:16:27.230Z,2.06
2019-03-26T01:16:59.456Z,1.97
2019-03-26T01:17:30.687Z,2.08
2019-03-26T01:18:01.925Z,2.08
2019-03-26T01:18:33.139Z,2.10
2019-03-26T01:19:04.332Z,2.10
2019-03-26T01:19:35.558Z,2.12
2019-03-26T01:20:06.907Z,2.10
2019-03-26T01:20:38.140Z,2.10
2019-03-26T01:21:09.370Z,2.13
2019-03-26T01:21:40.589Z,2.12
2019-03-26T01:22:12.119Z,2.12
2019-03-26T01:22:43.335Z,2.13
2019-03-26T01:23:14.549Z,2.13
2019-03-26T01:23:45.763Z,2.13
2019-03-26T01:24:16.944Z,2.15
2019-03-26T01:24:48.182Z,2.15
2019-03-26T01:25:19.412Z,2.16
2019-03-26T01:25:50.655Z,2.17
2019-03-26T01:26:21.880Z,2.17
2019-03-26T01:26:53.101Z,2.17
2019-03-26T01:27:24.341Z,2.19
2019-03-26T01:27:55.941Z,2.19
2019-03-26T01:28:27.181Z,2.20
2019-03-26T01:28:58.369Z,2.21
2019-03-26T01:29:29.508Z,2.23
2019-03-26T01:30:00.717Z,2.24
2019-03-26T01:30:32.869Z,2.26
2019-03-26T01:31:04.077Z,2.29
2019-03-26T01:31:35.230Z,2.29
2019-03-26T01:32:06.443Z,2.32
2019-03-26T01:32:37.599Z,2.32
2019-03-26T01:33:08.813Z,2.32
2019-03-26T01:33:40.050Z,2.34
2019-03-26T01:34:11.784Z,2.35
2019-03-26T01:34:46.152Z,2.36
2019-03-26T01:35:16.030Z,2.37
2019-03-26T01:35:47.188Z,2.38
2019-03-26T01:36:18.401Z,2.39
2019-03-26T01:36:49.565Z,2.38
2019-03-26T01:37:20.784Z,2.40
2019-03-26T01:37:51.965Z,2.33
2019-03-26T01:38:23.488Z,2.33
2019-03-26T01:38:54.661Z,2.43
2019-03-26T01:39:25.868Z,2.43
2019-03-26T01:39:57.025Z,2.43
2019-03-26T01:40:28.226Z,2.45
2019-03-26T01:40:59.377Z,2.46
2019-03-26T01:41:30.658Z,2.46
2019-03-26T01:42:01.847Z,2.48
2019-03-26T01:42:33.044Z,2.48
2019-03-26T01:43:04.202Z,2.48
2019-03-26T01:43:35.502Z,2.50
2019-03-26T01:44:06.679Z,2.50
2019-03-26T01:44:37.922Z,2.51
2019-03-26T01:45:09.559Z,2.51
2019-03-26T01:45:40.804Z,2.53
2019-03-26T01:46:11.969Z,2.52
2019-03-26T01:46:43.152Z,2.45
2019-03-26T01:47:14.318Z,2.45
2019-03-26T01:47:45.475Z,2.54
2019-03-26T01:48:16.676Z,2.53
2019-03-26T01:48:47.861Z,2.53
2019-03-26T01:49:19.046Z,2.54
2019-03-26T01:49:50.226Z,2.53
2019-03-26T01:50:21.411Z,2.54
2019-03-26T01:50:52.585Z,2.54
2019-03-26T01:51:23.761Z,2.53
2019-03-26T01:51:54.951Z,2.53
2019-03-26T01:52:26.427Z,2.54
2019-03-26T01:52:57.610Z,2.47
2019-03-26T01:53:28.791Z,2.54
2019-03-26T01:54:00.084Z,2.46
2019-03-26T01:54:31.265Z,2.56
2019-03-26T01:55:04.951Z,2.56
2019-03-26T01:55:36.180Z,2.56
2019-03-26T01:56:08.374Z,2.56
2019-03-26T01:56:39.568Z,2.56
2019-03-26T01:57:10.761Z,2.55
2019-03-26T01:57:41.957Z,2.55
2019-03-26T01:58:13.185Z,2.55
2019-03-26T01:58:44.375Z,2.57
2019-03-26T01:59:15.562Z,2.57
2019-03-26T01:59:46.755Z,2.55
2019-03-26T02:00:17.991Z,2.55
2019-03-26T02:00:49.250Z,2.55
2019-03-26T02:01:20.578Z,2.55
2019-03-26T02:01:51.852Z,2.53
2019-03-26T02:02:23.086Z,2.53
2019-03-26T02:02:54.319Z,2.52
2019-03-26T02:03:25.547Z,2.45
2019-03-26T02:03:56.978Z,2.53
2019-03-26T02:04:28.266Z,2.54
2019-03-26T02:05:00.583Z,2.54
2019-03-26T02:05:32.074Z,2.54
2019-03-26T02:06:03.229Z,2.54
2019-03-26T02:06:34.429Z,2.54
2019-03-26T02:07:05.567Z,2.46
2019-03-26T02:07:38.935Z,2.54
2019-03-26T02:08:09.829Z,2.53
2019-03-26T02:08:41.039Z,2.53
2019-03-26T02:09:13.202Z,2.54
2019-03-26T02:09:44.428Z,2.55
2019-03-26T02:10:15.591Z,2.55
2019-03-26T02:10:46.820Z,2.55
2019-03-26T02:11:17.983Z,2.54
2019-03-26T02:11:49.169Z,2.54
2019-03-26T02:12:20.313Z,2.53
2019-03-26T02:12:51.533Z,2.52
2019-03-26T02:13:22.757Z,2.52
2019-03-26T02:13:54.189Z,2.49
2019-03-26T02:14:25.355Z,2.52
2019-03-26T02:14:56.573Z,2.50
2019-03-26T02:15:29.507Z,2.50
2019-03-26T02:16:00.725Z,2.50
2019-03-26T02:16:31.891Z,2.47
2019-03-26T02:17:03.088Z,2.48
2019-03-26T02:17:34.268Z,2.47
2019-03-26T02:18:05.419Z,2.47
2019-03-26T02:18:36.562Z,2.48
2019-03-26T02:19:07.747Z,2.46
2019-03-26T02:19:38.931Z,2.46
2019-03-26T02:20:10.074Z,2.42
2019-03-26T02:20:41.278Z,2.43
2019-03-26T02:21:13.743Z,2.42
2019-03-26T02:21:45.049Z,2.41
2019-03-26T02:22:16.224Z,2.40
2019-03-26T02:22:47.419Z,2.40
2019-03-26T02:23:18.616Z,2.38
2019-03-26T02:23:49.810Z,2.39
2019-03-26T02:24:20.957Z,2.38
2019-03-26T02:24:52.152Z,2.36
2019-03-26T02:25:23.289Z,2.36
2019-03-26T02:25:54.515Z,2.35
2019-03-26T02:26:25.753Z,2.34
2019-03-26T02:26:57.120Z,2.34
2019-03-26T02:27:28.274Z,2.32
2019-03-26T02:28:00.468Z,2.33
2019-03-26T02:28:31.636Z,2.32
2019-03-26T02:29:02.841Z,2.30
2019-03-26T02:29:35.020Z,2.30
2019-03-26T02:30:06.230Z,2.30
2019-03-26T02:30:37.482Z,2.29
2019-03-26T02:31:08.719Z,2.27
2019-03-26T02:31:39.973Z,2.27
2019-03-26T02:32:11.168Z,2.27
2019-03-26T02:32:42.314Z,2.25
2019-03-26T02:33:13.534Z,2.23
2019-03-26T02:33:44.724Z,2.23
2019-03-26T02:34:15.926Z,2.22
2019-03-26T02:34:47.112Z,2.22
2019-03-26T02:35:19.332Z,2.21
2019-03-26T02:35:50.753Z,2.21
2019-03-26T02:36:21.927Z,2.21
2019-03-26T02:36:53.122Z,2.20
2019-03-26T02:37:24.293Z,2.20
2019-03-26T02:37:55.481Z,2.20
2019-03-26T02:38:26.665Z,2.19
2019-03-26T02:38:57.828Z,2.18
2019-03-26T02:39:29.014Z,2.18
2019-03-26T02:40:00.671Z,2.17
2019-03-26T02:40:31.970Z,2.18
2019-03-26T02:41:03.165Z,2.17
2019-03-26T02:41:37.792Z,2.20
2019-03-26T02:42:07.600Z,2.19
2019-03-26T02:42:38.792Z,2.09
2019-03-26T02:43:11.088Z,2.14
2019-03-26T02:43:42.283Z,2.18
2019-03-26T02:44:13.506Z,2.18
2019-03-26T02:44:44.811Z,2.19
2019-03-26T02:45:16.006Z,2.06
2019-03-26T02:45:47.168Z,2.19
2019-03-26T02:46:18.374Z,2.18
2019-03-26T02:46:49.531Z,2.13
2019-03-26T02:47:21.037Z,2.13
2019-03-26T02:47:53.466Z,2.11
2019-03-26T02:48:24.636Z,2.11
2019-03-26T02:48:55.789Z,2.11
2019-03-26T02:49:27.107Z,2.11
2019-03-26T02:49:58.393Z,2.10
2019-03-26T02:50:29.615Z,2.08
2019-03-26T02:51:00.791Z,2.09
2019-03-26T02:51:32.011Z,2.08
2019-03-26T02:52:03.177Z,2.08
2019-03-26T02:52:35.359Z,2.10
2019-03-26T02:53:08.659Z,2.09
2019-03-26T02:53:39.643Z,2.09
2019-03-26T02:54:10.899Z,2.09
2019-03-26T02:54:42.123Z,2.10
2019-03-26T02:55:13.329Z,2.00
2019-03-26T02:55:44.534Z,2.11
2019-03-26T02:56:15.740Z,2.11
2019-03-26T02:56:46.908Z,2.11
2019-03-26T02:57:18.122Z,2.10
2019-03-26T02:57:49.275Z,2.10
2019-03-26T02:58:20.482Z,2.08
2019-03-26T02:58:51.639Z,2.07
2019-03-26T02:59:22.868Z,2.07
2019-03-26T02:59:54.042Z,2.05
2019-03-26T03:00:25.238Z,2.05
2019-03-26T03:00:56.408Z,2.05
2019-03-26T03:01:27.587Z,2.05
2019-03-26T03:01:58.783Z,2.04
2019-03-26T03:02:29.988Z,2.03
2019-03-26T03:03:01.155Z,2.03
2019-03-26T03:03:32.354Z,2.02
2019-03-26T03:04:03.501Z,2.02
2019-03-26T03:04:34.700Z,2.00
2019-03-26T03:05:05.874Z,2.01
2019-03-26T03:05:37.083Z,2.01
2019-03-26T03:06:08.539Z,2.01
2019-03-26T03:06:39.745Z,2.02
2019-03-26T03:07:10.949Z,2.02
2019-03-26T03:07:42.168Z,1.98
2019-03-26T03:08:13.331Z,1.98
2019-03-26T03:08:45.537Z,1.97
2019-03-26T03:09:16.734Z,1.97
2019-03-26T03:09:47.999Z,1.96
2019-03-26T03:10:19.187Z,1.96
2019-03-26T03:10:50.437Z,1.97
2019-03-26T03:11:21.618Z,1.98
2019-03-26T03:11:52.845Z,1.96
2019-03-26T03:12:25.074Z,1.96
2019-03-26T03:12:56.393Z,1.96
2019-03-26T03:13:28.548Z,1.97
2019-03-26T03:13:59.741Z,1.97
2019-03-26T03:14:30.909Z,1.98
2019-03-26T03:15:03.902Z,1.98
2019-03-26T03:15:35.183Z,1.96
2019-03-26T03:16:06.361Z,1.96
2019-03-26T03:16:37.557Z,1.95
2019-03-26T03:17:08.736Z,1.94
2019-03-26T03:17:39.932Z,1.94
2019-03-26T03:18:11.106Z,1.93
2019-03-26T03:18:42.274Z,1.93
2019-03-26T03:19:15.924Z,1.92
2019-03-26T03:19:46.567Z,1.92
2019-03-26T03:20:17.726Z,1.91
2019-03-26T03:20:48.986Z,1.90
2019-03-26T03:21:20.161Z,1.91
2019-03-26T03:21:52.366Z,1.91
2019-03-26T03:22:23.590Z,1.93
2019-03-26T03:22:54.768Z,1.95
2019-03-26T03:23:26.397Z,1.95
2019-03-26T03:23:57.608Z,1.93
2019-03-26T03:24:28.790Z,1.93
2019-03-26T03:24:59.969Z,1.94
2019-03-26T03:25:31.284Z,1.94
2019-03-26T03:26:02.476Z,1.94
2019-03-26T03:26:33.629Z,1.94
2019-03-26T03:27:04.845Z,1.94
2019-03-26T03:27:36.083Z,1.95
2019-03-26T03:28:07.284Z,1.95
2019-03-26T03:28:38.428Z,1.95
2019-03-26T03:29:09.640Z,1.94
2019-03-26T03:29:40.821Z,1.94
2019-03-26T03:30:12.892Z,1.92
2019-03-26T03:30:44.085Z,1.92
2019-03-26T03:31:15.433Z,1.93
2019-03-26T03:31:46.794Z,1.92
2019-03-26T03:32:18.086Z,1.90
2019-03-26T03:32:49.457Z,1.87
2019-03-26T03:33:20.763Z,1.84
2019-03-26T03:33:51.997Z,1.83
2019-03-26T03:34:23.467Z,1.80
2019-03-26T03:34:54.802Z,1.80
2019-03-26T03:35:26.028Z,1.80
2019-03-26T03:35:57.244Z,1.78
2019-03-26T03:36:28.453Z,1.81
2019-03-26T03:36:59.670Z,1.81
2019-03-26T03:37:30.961Z,1.79
2019-03-26T03:38:02.215Z,1.78
2019-03-26T03:38:33.367Z,1.79
2019-03-26T03:39:05.880Z,1.79
2019-03-26T03:39:37.234Z,1.81
2019-03-26T03:40:08.422Z,1.78
2019-03-26T03:40:39.581Z,1.78
2019-03-26T03:41:10.793Z,1.76
2019-03-26T03:41:41.955Z,1.74
2019-03-26T03:42:13.256Z,1.65
2019-03-26T03:42:44.435Z,1.65
2019-03-26T03:43:15.644Z,1.72
2019-03-26T03:43:46.833Z,1.70
2019-03-26T03:44:18.045Z,1.70
2019-03-26T03:44:49.226Z,1.60
2019-03-26T03:45:27.197Z,1.67
2019-03-26T03:45:58.380Z,1.65
2019-03-26T03:46:29.620Z,1.62
2019-03-26T03:47:00.850Z,1.60
2019-03-26T03:47:32.046Z,1.59
2019-03-26T03:48:03.243Z,1.56
2019-03-26T03:48:34.421Z,1.56
2019-03-26T03:49:05.585Z,1.51
2019-03-26T03:49:36.797Z,1.54
2019-03-26T03:50:07.981Z,1.54
2019-03-26T03:50:39.162Z,1.51
2019-03-26T03:51:10.407Z,1.50
2019-03-26T03:51:42.263Z,1.52
2019-03-26T03:52:13.486Z,1.40
2019-03-26T03:52:44.639Z,1.50
2019-03-26T03:53:15.950Z,1.50
2019-03-26T03:53:47.107Z,1.51
2019-03-26T03:54:18.398Z,1.40
2019-03-26T03:54:49.542Z,1.51
2019-03-26T03:55:20.752Z,1.49
2019-03-26T03:55:52.525Z,1.49
2019-03-26T03:56:24.231Z,1.47
2019-03-26T03:56:55.780Z,1.46
2019-03-26T03:57:27.109Z,1.41
2019-03-26T03:57:58.760Z,1.40
2019-03-26T03:58:31.266Z,1.37
2019-03-26T03:59:02.433Z,1.36
2019-03-26T03:59:33.731Z,1.34
2019-03-26T04:00:19.010Z,1.30
2019-03-26T04:00:50.238Z,1.30
2019-03-26T04:01:21.420Z,1.28
2019-03-26T04:01:52.733Z,1.28
2019-03-26T04:02:24.184Z,1.28
2019-03-26T04:02:55.410Z,1.29
2019-03-26T04:03:26.636Z,1.31
2019-03-26T04:03:57.901Z,1.31
2019-03-26T04:04:29.361Z,1.30
2019-03-26T04:05:00.641Z,1.31
2019-03-26T04:05:32.552Z,1.31
2019-03-26T04:06:09.385Z,1.31
2019-03-26T04:06:36.831Z,1.31
2019-03-26T04:07:08.068Z,1.30
2019-03-26T04:07:39.290Z,1.33
2019-03-26T04:08:10.524Z,1.33
2019-03-26T04:08:41.745Z,1.33
2019-03-26T04:09:12.979Z,1.34
2019-03-26T04:09:44.211Z,1.34
2019-03-26T04:10:15.420Z,1.35
2019-03-26T04:10:46.649Z,1.34
2019-03-26T04:11:17.881Z,1.39
2019-03-26T04:11:49.082Z,1.43
2019-03-26T04:12:20.332Z,1.43
2019-03-26T04:12:51.665Z,1.43
2019-03-26T04:13:22.903Z,1.44
2019-03-26T04:13:54.273Z,1.44
2019-03-26T04:14:25.500Z,1.45
2019-03-26T04:14:56.881Z,1.45
2019-03-26T04:15:28.109Z,1.45
2019-03-26T04:15:59.343Z,1.47
2019-03-26T04:16:30.555Z,1.46
2019-03-26T04:17:01.705Z,1.47
2019-03-26T04:17:32.920Z,1.47
2019-03-26T04:18:04.112Z,1.48
2019-03-26T04:18:35.323Z,1.47
2019-03-26T04:19:06.672Z,1.49
2019-03-26T04:19:38.003Z,1.50
2019-03-26T04:20:09.220Z,1.51
2019-03-26T04:20:40.434Z,1.52
2019-03-26T04:21:11.580Z,1.54
2019-03-26T04:21:42.985Z,1.54
2019-03-26T04:22:14.142Z,1.55
2019-03-26T04:22:45.377Z,1.54
2019-03-26T04:23:16.515Z,1.55
2019-03-26T04:23:47.724Z,1.56
2019-03-26T04:24:18.890Z,1.57
2019-03-26T04:24:50.100Z,1.59
2019-03-26T04:25:21.358Z,1.59
2019-03-26T04:25:52.626Z,1.59
2019-03-26T04:26:23.999Z,1.59
2019-03-26T04:26:55.200Z,1.59
2019-03-26T04:27:26.501Z,1.58
2019-03-26T04:27:57.717Z,1.59
2019-03-26T04:28:28.873Z,1.59
2019-03-26T04:29:00.076Z,1.59
2019-03-26T04:29:31.235Z,1.60
2019-03-26T04:30:06.748Z,1.59
2019-03-26T04:30:38.003Z,1.61
2019-03-26T04:31:09.207Z,1.60
2019-03-26T04:31:40.388Z,1.60
2019-03-26T04:32:11.629Z,1.60
2019-03-26T04:32:42.952Z,1.61
2019-03-26T04:33:14.185Z,1.61
2019-03-26T04:33:45.414Z,1.60
2019-03-26T04:34:16.731Z,1.58
2019-03-26T04:34:47.996Z,1.57
2019-03-26T04:35:19.252Z,1.57
2019-03-26T04:35:50.471Z,1.57
2019-03-26T04:36:26.003Z,1.58
2019-03-26T04:36:54.808Z,1.58
2019-03-26T04:37:25.981Z,1.59
2019-03-26T04:37:57.190Z,1.59
2019-03-26T04:38:28.363Z,1.59
2019-03-26T04:38:59.588Z,1.60
2019-03-26T04:39:30.747Z,1.60
2019-03-26T04:40:01.994Z,1.62
2019-03-26T04:40:33.225Z,1.62
2019-03-26T04:41:04.439Z,1.62
2019-03-26T04:41:35.690Z,1.63
2019-03-26T04:42:06.862Z,1.63
2019-03-26T04:42:38.036Z,1.63
2019-03-26T04:43:09.228Z,1.63
2019-03-26T04:43:40.404Z,1.63
2019-03-26T04:44:11.589Z,1.65
2019-03-26T04:44:42.761Z,1.65
2019-03-26T04:45:13.970Z,1.65
2019-03-26T04:45:45.127Z,1.65
2019-03-26T04:46:16.328Z,1.66
2019-03-26T04:46:47.527Z,1.66
2019-03-26T04:47:18.735Z,1.66
2019-03-26T04:47:49.988Z,1.65
2019-03-26T04:48:21.216Z,1.64
2019-03-26T04:48:52.398Z,1.64
2019-03-26T04:49:24.683Z,1.64
2019-03-26T04:49:55.946Z,1.62
2019-03-26T04:50:27.200Z,1.63
2019-03-26T04:50:58.388Z,1.63
2019-03-26T04:51:29.981Z,1.63
2019-03-26T04:52:01.159Z,1.65
2019-03-26T04:52:32.408Z,1.66
2019-03-26T04:53:03.613Z,1.66
2019-03-26T04:53:34.853Z,1.67
2019-03-26T04:54:06.086Z,1.65
2019-03-26T04:54:37.317Z,1.67
2019-03-26T04:55:08.553Z,1.66
2019-03-26T04:55:39.779Z,1.66
2019-03-26T04:56:11.002Z,1.56
2019-03-26T04:56:42.252Z,1.66
2019-03-26T04:57:13.467Z,1.68
2019-03-26T04:57:44.742Z,1.69
2019-03-26T04:58:15.948Z,1.69
2019-03-26T04:58:47.201Z,1.69
2019-03-26T04:59:18.404Z,1.59
2019-03-26T04:59:49.579Z,1.69
2019-03-26T05:00:20.789Z,1.69
2019-03-26T05:00:51.964Z,1.69
2019-03-26T05:01:23.545Z,1.70
2019-03-26T05:01:54.709Z,1.70
2019-03-26T05:02:25.918Z,1.69
2019-03-26T05:02:57.116Z,1.69
2019-03-26T05:03:28.347Z,1.69
2019-03-26T05:03:59.488Z,1.66
2019-03-26T05:04:30.720Z,1.68
2019-03-26T05:05:01.988Z,1.68
2019-03-26T05:05:33.184Z,1.68
2019-03-26T05:06:05.434Z,1.68
2019-03-26T05:06:38.137Z,1.69
2019-03-26T05:07:09.612Z,1.70
2019-03-26T05:07:40.867Z,1.71
2019-03-26T05:08:12.100Z,1.71
2019-03-26T05:08:43.350Z,1.63
2019-03-26T05:09:14.588Z,1.63
2019-03-26T05:09:45.812Z,1.72
2019-03-26T05:10:17.046Z,1.74
2019-03-26T05:10:49.313Z,1.75
2019-03-26T05:11:20.706Z,1.75
2019-03-26T05:11:51.936Z,1.75
2019-03-26T05:12:23.425Z,1.78
2019-03-26T05:12:54.588Z,1.80
2019-03-26T05:13:25.870Z,1.80
2019-03-26T05:13:57.052Z,1.81
2019-03-26T05:14:28.261Z,1.80
2019-03-26T05:14:59.427Z,1.79
2019-03-26T05:15:30.648Z,1.79
2019-03-26T05:16:01.806Z,1.80
2019-03-26T05:16:33.019Z,1.81
2019-03-26T05:17:04.174Z,1.77
2019-03-26T05:17:35.385Z,1.77
2019-03-26T05:18:06.552Z,1.81
2019-03-26T05:18:37.748Z,1.81
2019-03-26T05:19:08.928Z,1.82
2019-03-26T05:19:40.106Z,1.82
2019-03-26T05:20:11.261Z,1.82
2019-03-26T05:20:42.433Z,1.83
2019-03-26T05:21:13.592Z,1.83
2019-03-26T05:21:44.753Z,1.83
2019-03-26T05:22:24.125Z,1.83
2019-03-26T05:22:49.027Z,1.84
2019-03-26T05:23:20.169Z,1.84
2019-03-26T05:23:52.070Z,1.84
2019-03-26T05:24:24.430Z,1.84
2019-03-26T05:24:55.636Z,1.84
2019-03-26T05:25:26.805Z,1.84
2019-03-26T05:25:58.016Z,1.84
2019-03-26T05:26:29.174Z,1.86
2019-03-26T05:27:00.378Z,1.87
2019-03-26T05:27:44.837Z,1.87
2019-03-26T05:28:06.452Z,1.87
2019-03-26T05:28:37.637Z,1.88
2019-03-26T05:29:08.817Z,1.89
2019-03-26T05:29:39.998Z,1.88
2019-03-26T05:30:11.170Z,1.88
2019-03-26T05:30:42.359Z,1.89
2019-03-26T05:31:13.545Z,1.89
2019-03-26T05:31:44.719Z,1.89
2019-03-26T05:32:15.879Z,1.88
2019-03-26T05:32:47.061Z,1.87
2019-03-26T05:33:18.239Z,1.88
2019-03-26T05:33:49.425Z,1.87
2019-03-26T05:34:20.599Z,1.89
2019-03-26T05:34:51.769Z,1.89
2019-03-26T05:35:22.943Z,1.90
2019-03-26T05:35:54.125Z,1.88
2019-03-26T05:36:25.301Z,1.88
2019-03-26T05:36:57.502Z,1.87
2019-03-26T05:37:28.705Z,1.87
2019-03-26T05:37:59.897Z,1.86
2019-03-26T05:38:31.075Z,1.88
2019-03-26T05:39:04.488Z,1.88
2019-03-26T05:39:35.666Z,1.87
2019-03-26T05:40:07.245Z,1.90
2019-03-26T05:40:38.438Z,1.91
2019-03-26T05:41:10.779Z,1.92
2019-03-26T05:41:41.992Z,1.93
2019-03-26T05:42:13.158Z,1.91
2019-03-26T05:42:44.376Z,1.93
2019-03-26T05:43:15.554Z,1.93
2019-03-26T05:43:46.752Z,1.93
2019-03-26T05:44:17.950Z,1.95
2019-03-26T05:44:49.180Z,1.94
2019-03-26T05:45:20.344Z,1.94
2019-03-26T05:45:51.578Z,1.98
2019-03-26T05:46:22.714Z,1.95
2019-03-26T05:46:54.355Z,1.96
2019-03-26T05:47:25.711Z,1.98
2019-03-26T05:47:57.021Z,1.98
2019-03-26T05:48:28.165Z,1.98
2019-03-26T05:48:59.383Z,1.98
2019-03-26T05:49:30.580Z,1.98
2019-03-26T05:50:04.066Z,1.97
2019-03-26T05:50:35.255Z,1.98
2019-03-26T05:51:06.469Z,1.97
2019-03-26T05:51:37.671Z,1.97
2019-03-26T05:52:08.847Z,1.98
2019-03-26T05:52:40.035Z,1.99
2019-03-26T05:53:11.231Z,2.00
2019-03-26T05:53:42.410Z,2.02
2019-03-26T05:54:13.634Z,2.02
2019-03-26T05:54:44.803Z,2.01
2019-03-26T05:55:16.023Z,2.01
2019-03-26T05:55:47.176Z,2.02
2019-03-26T05:56:18.385Z,2.03
2019-03-26T05:56:49.524Z,2.03
2019-03-26T05:57:20.748Z,2.03
2019-03-26T05:57:51.940Z,2.05
2019-03-26T05:58:23.145Z,2.07
2019-03-26T05:58:54.314Z,2.10
2019-03-26T05:59:25.543Z,2.10
2019-03-26T05:59:56.697Z,2.11
2019-03-26T06:00:27.934Z,1.99
2019-03-26T06:00:59.186Z,2.11
2019-03-26T06:01:30.428Z,2.11
2019-03-26T06:02:13.438Z,2.04
2019-03-26T06:02:34.698Z,2.15
2019-03-26T06:03:05.881Z,2.15
2019-03-26T06:03:37.114Z,2.11
2019-03-26T06:04:08.338Z,2.16
2019-03-26T06:04:39.587Z,2.09
2019-03-26T06:05:10.800Z,2.17
2019-03-26T06:05:42.051Z,2.17
2019-03-26T06:06:13.294Z,2.19
2019-03-26T06:06:44.521Z,2.20
2019-03-26T06:07:15.767Z,2.22
2019-03-26T06:07:46.981Z,2.22
2019-03-26T06:08:18.195Z,2.24
2019-03-26T06:08:49.365Z,2.24
2019-03-26T06:09:20.585Z,2.24
2019-03-26T06:09:51.833Z,2.24
2019-03-26T06:10:23.054Z,2.26
2019-03-26T06:10:54.257Z,2.16
2019-03-26T06:11:25.470Z,2.16
2019-03-26T06:11:56.644Z,2.26
2019-03-26T06:12:27.855Z,2.27
2019-03-26T06:12:59.008Z,2.28
2019-03-26T06:13:30.238Z,2.29
2019-03-26T06:14:01.431Z,2.29
2019-03-26T06:14:32.716Z,2.32
2019-03-26T06:15:06.576Z,2.34
2019-03-26T06:15:37.795Z,2.34
2019-03-26T06:16:08.963Z,2.34
2019-03-26T06:16:40.166Z,2.35
2019-03-26T06:17:11.324Z,2.26
2019-03-26T06:17:42.536Z,2.37
2019-03-26T06:18:13.827Z,2.35
2019-03-26T06:18:45.029Z,2.40
2019-03-26T06:19:16.216Z,2.43
2019-03-26T06:19:47.459Z,2.43
2019-03-26T06:20:18.602Z,2.44
2019-03-26T06:20:49.800Z,2.34
2019-03-26T06:21:20.962Z,2.47
2019-03-26T06:21:52.160Z,2.47
2019-03-26T06:22:23.639Z,2.48
2019-03-26T06:22:54.919Z,2.49
2019-03-26T06:23:26.093Z,2.49
2019-03-26T06:23:57.347Z,2.49
2019-03-26T06:24:28.583Z,2.38
2019-03-26T06:24:59.815Z,2.51
2019-03-26T06:25:31.048Z,2.52
2019-03-26T06:26:02.279Z,2.54
2019-03-26T06:26:33.567Z,2.56
2019-03-26T06:27:04.796Z,2.56
2019-03-26T06:27:36.035Z,2.59
2019-03-26T06:28:07.269Z,2.59
2019-03-26T06:28:38.569Z,2.60
2019-03-26T06:29:09.728Z,2.61
2019-03-26T06:29:40.935Z,2.61
2019-03-26T06:30:12.094Z,2.63
2019-03-26T06:30:43.294Z,2.57
2019-03-26T06:31:14.450Z,2.63
2019-03-26T06:31:45.670Z,2.64
2019-03-26T06:32:16.828Z,2.66
2019-03-26T06:32:48.064Z,2.66
2019-03-26T06:33:19.220Z,2.66
2019-03-26T06:33:50.432Z,2.68
2019-03-26T06:34:21.591Z,2.68
2019-03-26T06:34:52.803Z,2.70
2019-03-26T06:35:23.953Z,2.69
2019-03-26T06:35:55.172Z,2.71
2019-03-26T06:36:26.464Z,2.71
2019-03-26T06:36:57.727Z,2.63
2019-03-26T06:37:28.905Z,2.72
2019-03-26T06:38:00.131Z,2.72
2019-03-26T06:38:31.333Z,2.75
2019-03-26T06:39:06.022Z,2.75
2019-03-26T06:39:37.186Z,2.75
2019-03-26T06:40:09.000Z,2.74
2019-03-26T06:40:40.157Z,2.74
2019-03-26T06:41:11.377Z,2.74
2019-03-26T06:41:42.527Z,2.76
2019-03-26T06:42:13.726Z,2.76
2019-03-26T06:42:44.870Z,2.77
2019-03-26T06:43:16.091Z,2.78
2019-03-26T06:43:47.275Z,2.79
2019-03-26T06:44:18.527Z,2.76
2019-03-26T06:44:49.763Z,2.72
2019-03-26T06:45:21.005Z,2.72
2019-03-26T06:45:52.275Z,2.82
2019-03-26T06:46:23.642Z,2.83
2019-03-26T06:46:54.899Z,2.84
2019-03-26T06:47:26.118Z,2.85
2019-03-26T06:47:57.359Z,2.86
2019-03-26T06:48:28.658Z,2.76
2019-03-26T06:48:59.858Z,2.76
2019-03-26T06:49:31.086Z,2.87
2019-03-26T06:50:06.040Z,2.88
2019-03-26T06:50:37.191Z,2.88
2019-03-26T06:51:08.404Z,2.89
2019-03-26T06:51:39.548Z,2.87
2019-03-26T06:52:10.763Z,2.89
2019-03-26T06:52:41.910Z,2.81
2019-03-26T06:53:13.159Z,2.83
2019-03-26T06:53:44.394Z,2.83
2019-03-26T06:54:15.616Z,2.83
2019-03-26T06:54:47.079Z,2.95
2019-03-26T06:55:18.287Z,2.95
2019-03-26T06:55:49.443Z,2.96
2019-03-26T06:56:20.651Z,2.96
2019-03-26T06:56:51.814Z,2.97
2019-03-26T06:57:34.962Z,2.99
2019-03-26T06:57:56.225Z,2.90